Time;durP1;ratioP1;P1;durP2;ratioP2;P2;SDS_P1;SDS_P2;PMS_P1;PMS_P2;Temp;Humidity;BMP_temperature;BMP_pressure;BME280_temperature;BME280_humidity;BME280_pressure;Samples;Min_cycle;Max_cycle;Signal;HPM_P1;HPM_P2
2022/08/02 04:01:03;;;;;;;2.63;2.42;;;16.90;99.90;;;;;;5682834;23;20146;-71
2022/08/02 04:03:29;;;;;;;2.45;2.17;;;16.90;99.90;;;;;;4975827;28;20483;-71
2022/08/02 04:05:54;;;;;;;2.67;2.08;;;16.80;99.90;;;;;;4975448;28;20035;-71
2022/08/02 04:08:20;;;;;;;4.60;2.65;;;16.80;99.90;;;;;;4975961;28;20123;-71
2022/08/02 04:13:33;;;;;;;3.65;2.67;;;16.90;99.90;;;;;;4957619;28;20036;-70
2022/08/02 04:16:07;;;;;;;5.18;2.60;;;16.90;99.90;;;;;;4961489;28;20039;-70
2022/08/02 04:18:38;;;;;;;4.18;2.78;;;17.00;99.90;;;;;;4967178;28;20039;-70
2022/08/02 04:21:06;;;;;;;4.78;2.83;;;17.10;99.90;;;;;;4956418;28;20130;-70
2022/08/02 04:23:35;;;;;;;4.25;2.70;;;17.20;99.90;;;;;;4956734;28;20038;-70
2022/08/02 04:26:03;;;;;;;2.60;2.40;;;17.40;99.90;;;;;;4956930;28;20078;-70
2022/08/02 04:28:29;;;;;;;3.20;2.50;;;17.40;99.90;;;;;;4966308;28;20070;-70
2022/08/02 04:30:56;;;;;;;3.28;2.80;;;17.60;99.90;;;;;;4974209;28;20043;-70
2022/08/02 04:33:22;;;;;;;5.38;2.42;;;17.60;99.90;;;;;;4976183;28;20035;-70
2022/08/02 04:35:48;;;;;;;6.68;2.55;;;17.70;99.90;;;;;;4975694;28;20035;-70
2022/08/02 04:38:14;;;;;;;2.97;2.20;;;17.80;99.90;;;;;;4976078;28;20039;-70
2022/08/02 04:40:40;;;;;;;5.20;2.22;;;17.80;99.90;;;;;;4975694;28;20042;-70
2022/08/02 04:43:06;;;;;;;3.28;2.80;;;17.80;99.90;;;;;;4975987;28;20396;-70
2022/08/02 04:45:32;;;;;;;4.40;2.50;;;17.80;99.90;;;;;;4975736;28;20476;-70
2022/08/02 04:47:57;;;;;;;3.38;2.58;;;17.90;99.90;;;;;;4975884;28;20035;-69
2022/08/02 04:50:23;;;;;;;6.28;2.60;;;17.90;99.90;;;;;;4975417;28;20039;-70
2022/08/02 04:52:48;;;;;;;5.68;2.50;;;18.00;99.90;;;;;;4975657;28;20505;-70
2022/08/02 04:55:14;;;;;;;2.67;2.33;;;18.10;99.90;;;;;;4975589;28;20521;-69
2022/08/02 04:57:55;;;;;;;6.75;2.40;;;18.20;99.90;;;;;;4975810;28;20039;-69
2022/08/02 05:00:21;;;;;;;4.35;2.55;;;18.30;99.90;;;;;;4975239;28;20098;-70
2022/08/02 05:02:47;;;;;;;3.35;2.17;;;18.40;99.90;;;;;;4975792;28;20038;-69
2022/08/02 05:05:13;;;;;;;5.57;3.08;;;18.50;99.90;;;;;;4975437;28;20043;-70
2022/08/02 05:07:39;;;;;;;3.92;2.45;;;18.60;99.90;;;;;;4975540;28;20378;-69
2022/08/02 05:10:05;;;;;;;5.28;2.70;;;18.60;99.90;;;;;;4975664;28;20067;-70
2022/08/02 05:12:30;;;;;;;3.08;2.63;;;18.70;99.90;;;;;;4977425;28;20035;-70
2022/08/02 05:14:56;;;;;;;4.53;3.08;;;18.80;99.90;;;;;;4980119;28;20042;-70
2022/08/02 05:17:21;;;;;;;3.78;2.90;;;18.80;99.90;;;;;;4981996;28;20031;-69
2022/08/02 05:19:47;;;;;;;5.38;3.20;;;18.90;99.90;;;;;;4981837;28;20046;-69
2022/08/02 05:22:12;;;;;;;5.65;3.45;;;18.90;99.90;;;;;;4981750;28;20370;-70
2022/08/02 05:24:38;;;;;;;4.25;3.28;;;19.00;99.90;;;;;;4981731;28;20115;-69
2022/08/02 05:27:03;;;;;;;4.60;3.10;;;19.10;99.90;;;;;;4981945;28;20070;-70
2022/08/02 05:29:29;;;;;;;4.50;3.17;;;19.10;99.90;;;;;;4981931;28;20122;-70
2022/08/02 05:31:54;;;;;;;4.28;2.95;;;19.10;99.90;;;;;;4981367;28;20465;-70
2022/08/02 05:34:20;;;;;;;5.95;2.70;;;19.10;99.90;;;;;;4981745;28;20325;-70
2022/08/02 05:36:45;;;;;;;4.95;3.15;;;19.10;99.90;;;;;;4981592;28;20370;-70
2022/08/02 05:39:11;;;;;;;5.75;2.92;;;19.00;99.90;;;;;;4981606;28;20533;-70
2022/08/02 05:41:36;;;;;;;9.55;3.05;;;19.10;99.90;;;;;;4981255;28;20031;-70
2022/08/02 05:44:03;;;;;;;3.83;3.05;;;19.10;99.90;;;;;;4979869;28;20464;-71
2022/08/02 05:46:28;;;;;;;5.60;3.63;;;19.10;99.90;;;;;;4981607;28;20035;-70
2022/08/02 05:48:54;;;;;;;5.85;3.65;;;19.10;99.90;;;;;;4981502;28;20094;-70
2022/08/02 05:51:30;;;;;;;4.70;3.42;;;19.10;99.90;;;;;;4981277;28;20118;-70
2022/08/02 05:54:22;;;;;;;9.20;3.58;;;19.10;99.90;;;;;;4981441;28;20043;-70
2022/08/02 05:56:55;;;;;;;6.25;3.42;;;19.20;99.90;;;;;;4981516;28;20070;-70
2022/08/02 06:00:09;;;;;;;3.85;3.35;;;19.20;99.90;;;;;;4981363;28;20066;-70
2022/08/02 06:02:37;;;;;;;5.07;3.72;;;19.30;99.90;;;;;;4980411;28;20047;-70
2022/08/02 06:05:10;;;;;;;5.28;4.10;;;19.50;99.90;;;;;;4981195;28;20066;-70
2022/08/02 06:07:36;;;;;;;6.20;3.58;;;19.60;99.90;;;;;;4981171;28;20110;-70
2022/08/02 06:10:06;;;;;;;5.55;3.70;;;19.70;99.90;;;;;;4981392;28;20063;-71
2022/08/02 06:12:36;;;;;;;4.05;3.35;;;19.80;99.90;;;;;;4981176;28;20482;-71
2022/08/02 06:15:03;;;;;;;5.03;3.55;;;19.80;99.90;;;;;;4981114;28;20548;-71
2022/08/02 06:17:30;;;;;;;4.95;3.22;;;19.90;99.90;;;;;;4981258;28;20480;-71
2022/08/02 06:19:57;;;;;;;5.10;3.45;;;19.90;99.90;;;;;;4978015;28;20046;-71
2022/08/02 06:22:26;;;;;;;4.03;3.40;;;19.90;99.90;;;;;;4981038;28;20516;-71
2022/08/02 06:24:54;;;;;;;6.95;3.53;;;19.80;99.90;;;;;;4977623;28;20050;-70
2022/08/02 06:27:20;;;;;;;5.32;3.47;;;19.90;99.90;;;;;;4977757;28;20082;-70
2022/08/02 06:29:48;;;;;;;7.00;3.40;;;19.80;99.90;;;;;;4973332;28;20086;-71
2022/08/02 06:32:18;;;;;;;5.57;3.15;;;19.80;99.90;;;;;;4967717;28;20039;-71
2022/08/02 06:34:45;;;;;;;7.43;3.72;;;19.90;99.90;;;;;;4968204;28;20460;-73
2022/08/02 06:37:40;;;;;;;5.07;3.05;;;19.90;99.90;;;;;;4965668;28;20038;-71
2022/08/02 06:40:09;;;;;;;5.45;3.40;;;20.10;99.90;;;;;;4968328;28;20461;-71
2022/08/02 06:43:02;;;;;;;3.90;3.25;;;20.20;99.90;;;;;;4967201;28;20036;-71
2022/08/02 06:45:28;;;;;;;5.60;3.28;;;20.20;99.90;;;;;;4976209;28;20162;-72
2022/08/02 06:47:54;;;;;;;6.47;3.45;;;20.20;99.90;;;;;;4966013;28;20571;-73
2022/08/02 06:50:20;;;;;;;5.28;3.33;;;20.30;99.90;;;;;;4957765;28;20054;-72
2022/08/02 06:52:45;;;;;;;5.75;3.50;;;20.30;99.90;;;;;;4958356;28;20027;-76
2022/08/02 06:55:11;;;;;;;3.72;3.30;;;20.40;99.90;;;;;;4956568;28;20039;-72
2022/08/02 06:57:36;;;;;;;4.00;2.90;;;20.50;99.90;;;;;;4958279;28;20378;-73
2022/08/02 07:00:07;;;;;;;4.82;2.90;;;20.60;99.90;;;;;;4958310;28;20091;-75
2022/08/02 07:02:34;;;;;;;3.40;3.10;;;20.60;99.90;;;;;;4958079;28;20040;-71
2022/08/02 07:05:00;;;;;;;3.30;3.00;;;20.80;99.90;;;;;;4956299;28;20070;-71
2022/08/02 07:07:26;;;;;;;4.35;3.28;;;20.90;99.90;;;;;;4958120;28;20074;-71
2022/08/02 07:09:52;;;;;;;3.58;3.05;;;21.10;99.90;;;;;;4956815;28;20348;-71
2022/08/02 07:12:18;;;;;;;3.85;2.90;;;21.30;99.90;;;;;;4966968;28;20046;-79
2022/08/02 07:14:43;;;;;;;4.70;2.78;;;21.50;99.90;;;;;;4995346;28;20074;-78
2022/08/02 07:17:09;;;;;;;3.47;3.08;;;21.70;99.90;;;;;;4980725;28;20062;-75
2022/08/02 07:19:34;;;;;;;4.43;2.80;;;21.70;99.90;;;;;;4975978;28;20067;-73
2022/08/02 07:22:00;;;;;;;3.28;2.70;;;22.00;99.90;;;;;;4973794;28;20039;-75
2022/08/02 07:24:25;;;;;;;3.45;2.50;;;22.20;99.90;;;;;;4987496;28;20050;-76
2022/08/02 07:26:51;;;;;;;3.33;2.78;;;22.50;99.90;;;;;;4976594;28;20099;-71
2022/08/02 07:29:16;;;;;;;4.25;2.85;;;22.60;99.90;;;;;;4976902;28;20051;-71
2022/08/02 07:31:42;;;;;;;5.18;2.58;;;22.70;99.90;;;;;;4975414;28;20023;-72
2022/08/02 07:34:07;;;;;;;2.72;2.45;;;22.90;99.90;;;;;;4976449;28;20044;-72
2022/08/02 07:36:33;;;;;;;3.42;2.63;;;22.80;99.90;;;;;;4975269;28;20031;-71
2022/08/02 07:38:58;;;;;;;3.15;2.63;;;23.00;99.90;;;;;;4976745;28;20039;-71
2022/08/02 07:41:24;;;;;;;4.63;2.97;;;23.20;99.90;;;;;;4976134;28;20028;-71
2022/08/02 07:43:50;;;;;;;2.72;2.50;;;23.20;99.90;;;;;;4972678;28;20057;-72
2022/08/02 07:46:15;;;;;;;3.90;2.55;;;23.40;99.70;;;;;;4976419;28;20107;-72
2022/08/02 07:48:41;;;;;;;3.60;2.28;;;23.50;99.70;;;;;;4976613;28;20047;-71
2022/08/02 07:51:07;;;;;;;2.75;2.55;;;23.60;98.70;;;;;;4976407;28;20078;-73
2022/08/02 07:53:32;;;;;;;3.33;2.33;;;23.80;98.50;;;;;;4976520;28;20035;-71
2022/08/02 07:55:58;;;;;;;5.72;2.30;;;23.90;98.20;;;;;;4976015;28;20031;-72
2022/08/02 07:58:23;;;;;;;4.53;2.70;;;24.10;97.30;;;;;;4976364;28;20045;-72
2022/08/02 08:00:49;;;;;;;3.72;2.20;;;24.20;97.10;;;;;;4976017;28;20040;-71
2022/08/02 08:03:14;;;;;;;6.00;2.40;;;24.30;96.70;;;;;;4976797;28;20040;-76
2022/08/02 08:05:40;;;;;;;2.78;2.30;;;24.50;96.70;;;;;;4976287;28;20038;-73
2022/08/02 08:08:05;;;;;;;3.85;2.58;;;24.40;96.90;;;;;;4976073;28;20041;-72
2022/08/02 08:10:31;;;;;;;4.03;2.15;;;24.50;96.60;;;;;;4976135;28;20043;-71
2022/08/02 08:12:57;;;;;;;6.50;2.20;;;24.70;96.10;;;;;;4976485;28;20059;-72
2022/08/02 08:15:23;;;;;;;3.00;2.20;;;25.00;95.40;;;;;;4976072;28;20043;-73
2022/08/02 08:17:48;;;;;;;2.90;2.15;;;25.10;95.30;;;;;;4974919;28;20042;-71
2022/08/02 08:20:14;;;;;;;2.97;2.38;;;25.20;95.20;;;;;;4976153;28;20129;-71
2022/08/02 08:22:39;;;;;;;2.95;2.35;;;25.30;95.30;;;;;;4976010;28;20039;-78
2022/08/02 08:25:05;;;;;;;4.22;2.10;;;25.60;94.50;;;;;;4973721;28;20039;-71
2022/08/02 08:27:31;;;;;;;3.58;2.28;;;25.80;94.00;;;;;;4976158;28;20031;-71
2022/08/02 08:29:56;;;;;;;2.15;2.00;;;25.90;93.20;;;;;;4976005;28;20086;-70
2022/08/02 08:32:22;;;;;;;4.32;2.72;;;26.00;92.90;;;;;;4975763;28;20512;-71
2022/08/02 08:34:48;;;;;;;2.78;2.10;;;26.20;92.60;;;;;;4975841;28;20043;-70
2022/08/02 08:37:15;;;;;;;3.40;2.03;;;26.30;92.20;;;;;;4975943;28;20484;-70
2022/08/02 08:39:40;;;;;;;3.83;2.05;;;26.40;91.60;;;;;;4975880;28;20046;-71
2022/08/02 08:42:07;;;;;;;2.45;2.20;;;26.70;91.00;;;;;;4975844;28;20417;-71
2022/08/02 08:44:36;;;;;;;3.75;2.35;;;26.90;91.30;;;;;;4975384;28;20042;-70
2022/08/02 08:47:03;;;;;;;3.20;2.20;;;26.80;90.50;;;;;;4975172;28;20031;-70
2022/08/02 08:49:35;;;;;;;2.58;2.20;;;26.80;90.60;;;;;;4975738;28;20043;-70
2022/08/02 08:52:04;;;;;;;3.58;2.00;;;27.10;90.00;;;;;;4975457;28;20429;-70
2022/08/02 08:54:31;;;;;;;2.38;2.13;;;27.30;89.90;;;;;;4973975;28;20520;-70
2022/08/02 08:56:58;;;;;;;2.38;1.83;;;27.60;88.00;;;;;;4976258;28;20151;-70
2022/08/02 08:59:23;;;;;;;2.95;2.10;;;27.30;88.20;;;;;;4975716;28;20035;-70
2022/08/02 09:01:50;;;;;;;4.90;2.10;;;27.20;86.60;;;;;;4975377;28;20045;-71
2022/08/02 09:04:16;;;;;;;3.60;1.90;;;27.30;85.70;;;;;;4972530;28;20173;-71
2022/08/02 09:06:42;;;;;;;3.97;2.30;;;27.30;86.10;;;;;;4972854;28;20035;-70
2022/08/02 09:09:08;;;;;;;4.65;2.15;;;27.50;85.90;;;;;;4975591;28;20516;-70
2022/08/02 09:11:33;;;;;;;2.72;2.03;;;27.40;84.40;;;;;;4975185;28;20497;-70
2022/08/02 09:14:01;;;;;;;4.93;2.13;;;27.60;84.70;;;;;;4975053;28;20090;-70
2022/08/02 09:16:34;;;;;;;2.83;2.20;;;27.80;84.00;;;;;;4974728;28;20054;-70
2022/08/02 09:19:16;;;;;;;3.35;2.25;;;28.00;84.10;;;;;;4975766;28;20031;-71
2022/08/02 09:21:41;;;;;;;2.58;2.10;;;28.10;82.20;;;;;;4975330;28;20929;-71
2022/08/02 09:24:22;;;;;;;3.38;2.15;;;28.20;82.10;;;;;;4975145;28;20122;-71
2022/08/02 09:26:49;;;;;;;2.80;2.50;;;28.10;82.00;;;;;;4975509;28;20427;-71
2022/08/02 09:29:15;;;;;;;4.82;2.17;;;28.30;82.40;;;;;;4975142;28;20548;-71
2022/08/02 09:31:41;;;;;;;2.50;2.30;;;28.30;81.00;;;;;;4974920;28;20540;-71
2022/08/02 09:34:07;;;;;;;3.05;2.33;;;28.30;80.40;;;;;;4975015;28;20114;-71
2022/08/02 09:36:39;;;;;;;3.53;2.33;;;28.40;79.90;;;;;;4975414;28;20566;-71
2022/08/02 09:39:06;;;;;;;2.97;2.33;;;28.00;79.60;;;;;;4975194;28;20055;-71
2022/08/02 09:41:39;;;;;;;2.65;2.08;;;28.40;79.90;;;;;;4975084;28;20083;-71
2022/08/02 09:44:06;;;;;;;4.10;2.30;;;28.60;80.20;;;;;;4974850;28;20032;-71
2022/08/02 09:46:40;;;;;;;2.60;2.40;;;28.70;79.20;;;;;;4975112;28;20036;-71
2022/08/02 09:49:11;;;;;;;3.72;2.38;;;28.60;78.00;;;;;;4975189;28;20497;-71
2022/08/02 09:51:45;;;;;;;6.35;3.17;;;28.60;79.40;;;;;;4974839;28;20035;-71
2022/08/02 09:54:27;;;;;;;2.90;2.30;;;28.80;78.90;;;;;;4975119;28;20042;-71
2022/08/02 09:56:56;;;;;;;3.58;2.80;;;28.90;78.50;;;;;;4975275;28;20027;-71
2022/08/02 09:59:23;;;;;;;3.28;2.97;;;29.00;78.00;;;;;;4975499;28;20031;-71
2022/08/02 10:01:49;;;;;;;2.72;2.50;;;29.20;75.60;;;;;;4978093;28;20081;-71
2022/08/02 10:04:18;;;;;;;3.10;2.60;;;29.20;77.00;;;;;;4978070;28;20106;-71
2022/08/02 10:06:43;;;;;;;3.50;2.53;;;29.30;75.80;;;;;;4978096;28;20041;-71
2022/08/02 10:09:12;;;;;;;2.90;2.70;;;29.40;76.10;;;;;;4978379;28;20050;-71
2022/08/02 10:11:37;;;;;;;3.10;2.50;;;29.40;75.20;;;;;;4978224;28;20458;-71
2022/08/02 10:14:05;;;;;;;5.05;2.28;;;29.40;74.20;;;;;;4978583;28;20078;-71
2022/08/02 10:16:33;;;;;;;2.95;2.45;;;29.50;73.60;;;;;;4976531;28;20087;-71
2022/08/02 10:19:01;;;;;;;2.40;2.20;;;29.70;74.20;;;;;;4977935;28;20127;-71
2022/08/02 10:21:32;;;;;;;4.78;2.67;;;30.20;74.20;;;;;;4977755;28;20035;-71
2022/08/02 10:24:07;;;;;;;3.88;2.95;;;30.40;73.50;;;;;;4977932;28;20031;-73
2022/08/02 10:26:34;;;;;;;2.63;2.42;;;30.70;72.30;;;;;;4977869;28;20027;-70
2022/08/02 10:29:00;;;;;;;3.10;2.80;;;31.10;69.50;;;;;;4977713;28;20548;-71
2022/08/02 10:31:33;;;;;;;3.00;2.40;;;31.10;69.30;;;;;;4977558;28;20039;-71
2022/08/02 10:34:01;;;;;;;3.15;2.45;;;30.90;70.30;;;;;;4977776;28;20062;-70
2022/08/02 10:36:31;;;;;;;5.82;2.25;;;31.10;68.70;;;;;;4977783;28;20110;-70
2022/08/02 10:38:57;;;;;;;5.20;2.50;;;31.10;69.70;;;;;;4976252;28;20074;-70
2022/08/02 10:41:46;;;;;;;2.78;2.40;;;31.20;69.80;;;;;;4977588;28;20046;-70
2022/08/02 10:44:26;;;;;;;4.82;2.60;;;31.00;69.60;;;;;;4977362;28;20046;-70
2022/08/02 10:47:11;;;;;;;3.15;2.42;;;31.20;68.10;;;;;;4977652;28;20122;-70
2022/08/02 10:49:57;;;;;;;3.45;2.50;;;31.50;68.20;;;;;;4977808;28;20099;-70
2022/08/02 10:52:26;;;;;;;5.20;2.30;;;31.90;67.00;;;;;;4977994;28;20043;-70
2022/08/02 10:55:08;;;;;;;2.83;2.60;;;32.20;64.10;;;;;;4976242;28;20062;-70
2022/08/02 10:57:35;;;;;;;4.88;2.63;;;32.60;64.70;;;;;;4978124;28;20122;-70
2022/08/02 11:00:02;;;;;;;2.70;2.50;;;32.40;63.90;;;;;;4977864;28;20035;-70
2022/08/02 11:02:33;;;;;;;2.65;2.40;;;32.60;63.00;;;;;;4977123;28;20035;-71
2022/08/02 11:05:00;;;;;;;2.78;2.28;;;32.40;62.60;;;;;;4977093;28;20031;-70
2022/08/02 11:07:40;;;;;;;2.40;2.20;;;32.40;62.40;;;;;;4977260;28;20027;-70
2022/08/02 11:10:27;;;;;;;4.53;2.50;;;31.90;62.70;;;;;;4974710;28;20125;-71
2022/08/02 11:13:14;;;;;;;3.85;2.35;;;31.20;66.00;;;;;;4956480;28;20135;-75
2022/08/02 11:16:01;;;;;;;2.80;2.30;;;31.10;66.10;;;;;;4965139;28;20039;-79
2022/08/02 11:18:49;;;;;;;3.83;2.45;;;31.50;65.00;;;;;;4967722;28;20372;-79
2022/08/02 11:21:28;;;;;;;2.80;2.60;;;31.80;64.00;;;;;;4976805;28;20043;-72
2022/08/02 11:23:54;;;;;;;3.88;2.20;;;32.20;64.30;;;;;;4976745;28;20027;-72
2022/08/02 11:26:32;;;;;;;5.05;2.45;;;32.30;63.50;;;;;;4976650;28;20528;-72
2022/08/02 11:29:02;;;;;;;3.60;2.20;;;32.80;62.50;;;;;;4976724;28;20043;-72
2022/08/02 11:31:36;;;;;;;4.43;2.35;;;32.90;61.80;;;;;;4976689;28;20118;-70
2022/08/02 11:34:04;;;;;;;2.47;2.28;;;32.90;62.00;;;;;;4976995;28;20063;-73
2022/08/02 11:36:29;;;;;;;4.60;2.22;;;33.20;59.80;;;;;;4976981;28;20035;-73
2022/08/02 11:39:12;;;;;;;4.88;2.67;;;33.30;60.20;;;;;;4966425;28;20557;-74
2022/08/02 11:41:38;;;;;;;2.17;1.98;;;33.00;59.90;;;;;;4966711;28;20100;-74
2022/08/02 11:44:03;;;;;;;4.30;2.40;;;32.80;60.50;;;;;;4971366;28;20039;-76
2022/08/02 11:46:29;;;;;;;2.38;2.10;;;32.20;59.70;;;;;;4976564;28;20031;-74
2022/08/02 11:48:54;;;;;;;2.40;2.20;;;31.10;61.70;;;;;;4975404;28;20046;-74
2022/08/02 11:51:20;;;;;;;2.53;2.30;;;30.30;63.50;;;;;;4975364;28;20035;-74
2022/08/02 11:53:57;;;;;;;4.70;2.30;;;29.90;65.40;;;;;;4976344;28;20111;-75
2022/08/02 11:56:28;;;;;;;2.67;2.13;;;29.60;69.00;;;;;;4976340;28;20037;-74
2022/08/02 11:59:10;;;;;;;2.38;2.15;;;29.30;67.70;;;;;;4976194;28;20089;-74
2022/08/02 12:01:38;;;;;;;4.18;2.35;;;29.40;68.80;;;;;;4975467;28;20039;-75
2022/08/02 12:04:05;;;;;;;4.22;2.28;;;29.50;70.10;;;;;;4975659;28;20244;-71
2022/08/02 12:06:32;;;;;;;3.13;2.38;;;29.90;67.20;;;;;;4976515;28;20043;-72
2022/08/02 12:09:09;;;;;;;6.40;2.25;;;31.00;64.30;;;;;;4976212;28;20490;-72
2022/08/02 12:11:37;;;;;;;3.67;2.38;;;31.10;63.90;;;;;;4974587;28;20062;-72
2022/08/02 12:14:04;;;;;;;3.80;2.40;;;30.90;64.50;;;;;;4975653;28;20039;-72
2022/08/02 12:19:28;;;;;;;2.38;2.20;;;31.20;62.50;;;;;;4973950;28;20138;-72
2022/08/02 12:22:10;;;;;;;1.90;1.80;;;31.30;60.10;;;;;;4975218;28;20034;-71
2022/08/02 12:24:37;;;;;;;3.80;2.50;;;31.50;59.80;;;;;;4975392;28;20044;-71
2022/08/02 12:27:02;;;;;;;2.70;2.20;;;32.10;59.30;;;;;;4974524;28;20543;-71
2022/08/02 12:29:33;;;;;;;4.65;2.38;;;31.90;59.00;;;;;;4976073;28;20046;-72
2022/08/02 12:31:59;;;;;;;2.40;2.20;;;31.50;60.30;;;;;;4976048;28;20035;-72
2022/08/02 12:34:27;;;;;;;4.38;2.05;;;30.80;60.80;;;;;;4975858;28;20043;-71
2022/08/02 12:37:03;;;;;;;3.30;2.40;;;30.30;62.50;;;;;;4976347;28;20060;-71
2022/08/02 12:39:41;;;;;;;3.40;1.95;;;30.00;63.10;;;;;;4976020;28;20152;-72
2022/08/02 12:42:10;;;;;;;1.98;1.88;;;30.30;65.90;;;;;;4975677;28;20401;-72
2022/08/02 12:44:48;;;;;;;3.90;2.35;;;31.20;61.50;;;;;;4975404;28;20458;-72
2022/08/02 12:47:13;;;;;;;2.95;2.00;;;32.20;58.90;;;;;;4975886;28;20035;-71
2022/08/02 12:49:39;;;;;;;2.95;2.20;;;32.90;55.70;;;;;;4975602;28;20047;-72
2022/08/02 12:52:22;;;;;;;2.92;1.90;;;32.90;57.00;;;;;;4975527;28;20398;-71
2022/08/02 12:54:48;;;;;;;4.47;2.00;;;33.20;55.80;;;;;;4972304;28;20035;-72
2022/08/02 12:57:18;;;;;;;2.95;2.00;;;33.80;56.20;;;;;;4974754;28;20039;-72
2022/08/02 12:59:50;;;;;;;1.90;1.80;;;34.10;53.70;;;;;;4974560;28;20531;-72
2022/08/02 13:02:16;;;;;;;2.40;2.20;;;34.00;54.40;;;;;;4975021;28;20046;-72
2022/08/02 13:04:42;;;;;;;3.47;2.40;;;34.00;54.90;;;;;;4975209;28;20513;-72
2022/08/02 13:07:08;;;;;;;2.53;1.88;;;34.40;54.40;;;;;;4974932;28;20027;-72
2022/08/02 13:09:36;;;;;;;3.10;1.80;;;34.10;54.40;;;;;;4974655;28;20076;-72
2022/08/02 13:12:03;;;;;;;3.78;2.03;;;34.40;52.90;;;;;;4973896;28;20035;-72
2022/08/02 13:14:29;;;;;;;1.50;1.40;;;34.90;52.70;;;;;;4974495;28;20480;-71
2022/08/02 13:16:55;;;;;;;3.78;1.88;;;35.30;50.60;;;;;;4974675;28;20039;-71
2022/08/02 13:19:20;;;;;;;1.90;1.80;;;34.90;53.20;;;;;;4974294;28;20057;-72
2022/08/02 13:21:47;;;;;;;2.38;1.75;;;35.10;51.50;;;;;;4974924;28;20039;-71
2022/08/02 13:24:14;;;;;;;2.88;1.70;;;35.40;50.60;;;;;;4974848;28;20046;-71
2022/08/02 13:26:41;;;;;;;2.95;1.80;;;34.70;49.20;;;;;;4975034;28;20034;-71
2022/08/02 13:29:07;;;;;;;4.22;1.70;;;34.50;49.80;;;;;;4974647;28;20576;-71
2022/08/02 13:31:36;;;;;;;3.20;1.70;;;34.50;50.70;;;;;;4974942;28;20106;-71
2022/08/02 13:34:05;;;;;;;1.85;1.42;;;34.90;49.40;;;;;;4976132;28;20039;-71
2022/08/02 13:36:33;;;;;;;2.30;1.65;;;34.90;49.30;;;;;;4978124;28;20480;-71
2022/08/02 13:38:59;;;;;;;2.45;1.52;;;35.10;49.80;;;;;;4976712;28;20046;-71
2022/08/02 13:41:25;;;;;;;3.15;1.60;;;35.30;49.40;;;;;;4978160;28;20024;-71
2022/08/02 13:43:50;;;;;;;1.83;1.70;;;36.00;48.70;;;;;;4976403;28;20513;-71
2022/08/02 13:46:16;;;;;;;3.03;1.80;;;36.60;48.70;;;;;;4977843;28;20028;-72
2022/08/02 13:48:41;;;;;;;3.35;2.15;;;36.80;46.80;;;;;;4978138;28;20062;-72
2022/08/02 13:51:10;;;;;;;1.83;1.70;;;37.20;46.90;;;;;;4978020;28;20034;-72
2022/08/02 13:53:40;;;;;;;2.22;1.70;;;37.60;46.00;;;;;;4977865;28;20035;-71
2022/08/02 13:56:06;;;;;;;4.80;2.03;;;37.40;45.20;;;;;;4966279;28;20480;-71
2022/08/02 13:58:31;;;;;;;2.33;1.70;;;38.00;45.60;;;;;;4958028;28;20043;-72
2022/08/02 14:00:57;;;;;;;2.22;1.63;;;38.20;44.60;;;;;;4958086;28;20520;-72
2022/08/02 14:03:22;;;;;;;1.67;1.58;;;37.70;44.70;;;;;;4959036;28;20039;-76
2022/08/02 14:05:48;;;;;;;2.53;1.80;;;37.50;45.60;;;;;;4958413;28;20407;-71
2022/08/02 14:08:15;;;;;;;2.78;1.80;;;37.20;43.60;;;;;;4958751;28;20036;-72
2022/08/02 14:10:41;;;;;;;3.08;1.80;;;36.90;46.60;;;;;;4966527;28;20489;-72
2022/08/02 14:13:07;;;;;;;1.88;1.70;;;36.30;46.70;;;;;;4967663;28;20043;-73
2022/08/02 14:15:33;;;;;;;3.97;1.58;;;36.00;48.60;;;;;;4970683;28;20395;-74
2022/08/02 14:17:58;;;;;;;1.80;1.70;;;36.40;47.40;;;;;;4977861;28;20102;-72
2022/08/02 14:20:24;;;;;;;2.80;1.90;;;38.20;45.00;;;;;;4977719;28;20059;-73
2022/08/02 14:22:49;;;;;;;6.15;2.35;;;39.20;44.00;;;;;;4977701;28;20070;-72
2022/08/02 14:25:15;;;;;;;2.85;1.77;;;40.30;43.30;;;;;;4977174;28;20043;-73
2022/08/02 14:27:41;;;;;;;2.05;1.80;;;40.90;41.60;;;;;;4977721;28;20034;-73
2022/08/02 14:30:07;;;;;;;2.13;1.75;;;41.10;40.40;;;;;;4977694;28;20051;-77
2022/08/02 14:32:32;;;;;;;3.83;2.22;;;41.80;39.50;;;;;;4976036;28;20442;-72
2022/08/02 14:34:58;;;;;;;2.50;1.70;;;41.20;39.50;;;;;;4977207;28;20046;-75
2022/08/02 14:37:24;;;;;;;1.98;1.80;;;41.50;39.60;;;;;;4976011;28;20039;-73
2022/08/02 14:39:49;;;;;;;3.13;1.80;;;42.70;38.50;;;;;;4978225;28;20039;-72
2022/08/02 14:42:15;;;;;;;2.85;2.03;;;42.40;38.40;;;;;;4976707;28;20046;-71
2022/08/02 14:44:40;;;;;;;2.35;1.70;;;42.80;37.80;;;;;;4976666;28;20402;-71
2022/08/02 14:47:06;;;;;;;3.67;1.83;;;42.90;38.30;;;;;;4976731;28;20031;-72
2022/08/02 14:49:32;;;;;;;3.20;2.00;;;43.30;37.30;;;;;;4977189;28;20050;-72
2022/08/02 14:51:57;;;;;;;3.15;1.70;;;43.50;36.70;;;;;;4976596;28;20035;-72
2022/08/02 14:54:27;;;;;;;2.10;1.90;;;42.80;36.20;;;;;;4976110;28;20047;-71
2022/08/02 14:56:53;;;;;;;2.10;1.80;;;41.40;37.40;;;;;;4958324;28;20119;-72
2022/08/02 14:59:18;;;;;;;2.65;1.70;;;41.30;38.70;;;;;;4971020;28;20454;-71
2022/08/02 15:01:44;;;;;;;2.03;1.80;;;41.60;38.40;;;;;;4977350;28;20413;-72
2022/08/02 15:04:09;;;;;;;4.28;1.90;;;43.00;36.40;;;;;;4976697;28;20118;-72
2022/08/02 15:06:35;;;;;;;2.58;1.83;;;44.00;36.00;;;;;;4974503;28;20504;-72
2022/08/02 15:09:00;;;;;;;3.15;2.00;;;44.70;34.80;;;;;;4967378;28;20078;-70
2022/08/02 15:11:26;;;;;;;2.33;1.98;;;44.90;34.40;;;;;;4978195;28;20200;-74
2022/08/02 15:13:51;;;;;;;2.88;1.83;;;45.50;34.00;;;;;;4976005;28;20074;-72
2022/08/02 15:16:17;;;;;;;4.40;2.20;;;45.40;32.90;;;;;;4977647;28;20043;-78
2022/08/02 15:18:44;;;;;;;2.30;2.05;;;43.80;34.30;;;;;;4977889;28;20035;-82
2022/08/02 15:21:09;;;;;;;2.17;2.00;;;44.20;33.90;;;;;;4977202;28;20042;-72
2022/08/02 15:23:36;;;;;;;3.17;1.80;;;44.60;34.00;;;;;;4976397;28;20044;-72
2022/08/02 15:26:03;;;;;;;1.90;1.80;;;44.20;33.30;;;;;;4976715;28;20043;-72
2022/08/02 15:28:30;;;;;;;2.25;1.88;;;43.70;34.30;;;;;;4962615;28;20078;-72
2022/08/02 15:30:56;;;;;;;4.30;1.80;;;42.50;34.40;;;;;;4956998;28;20040;-72
2022/08/02 15:33:22;;;;;;;3.97;2.10;;;43.60;34.10;;;;;;4962095;28;20035;-72
2022/08/02 15:35:47;;;;;;;3.00;1.90;;;44.50;32.90;;;;;;4976196;28;20119;-72
2022/08/02 15:38:13;;;;;;;2.88;1.98;;;43.80;33.00;;;;;;4965147;28;20042;-72
2022/08/02 15:40:39;;;;;;;3.08;2.00;;;44.30;33.10;;;;;;4957087;28;20490;-72
2022/08/02 15:43:04;;;;;;;5.00;1.73;;;43.90;33.50;;;;;;4959731;28;20490;-72
2022/08/02 15:45:30;;;;;;;3.95;1.88;;;44.40;33.40;;;;;;4976657;28;20095;-72
2022/08/02 15:47:55;;;;;;;2.58;1.77;;;45.30;32.10;;;;;;4968209;28;20036;-72
2022/08/02 15:50:21;;;;;;;2.63;1.90;;;45.50;31.90;;;;;;4957072;28;20040;-72
2022/08/02 15:52:46;;;;;;;3.72;1.90;;;45.10;32.70;;;;;;4957204;28;20486;-72
2022/08/02 15:55:13;;;;;;;4.55;1.88;;;45.10;33.10;;;;;;4975882;28;20187;-72
2022/08/02 15:57:38;;;;;;;2.22;1.80;;;44.70;32.10;;;;;;4970391;28;20120;-72
2022/08/02 16:00:05;;;;;;;2.88;1.58;;;45.30;32.90;;;;;;4957170;28;20565;-72
2022/08/02 16:02:31;;;;;;;2.42;1.77;;;44.90;32.60;;;;;;4955299;28;20533;-72
2022/08/02 16:04:56;;;;;;;2.47;1.60;;;44.60;32.60;;;;;;4973670;28;20050;-72
2022/08/02 16:07:22;;;;;;;2.38;1.52;;;44.70;32.30;;;;;;4972836;28;20052;-72
2022/08/02 16:09:47;;;;;;;2.00;1.80;;;45.10;32.60;;;;;;4957309;28;20036;-72
2022/08/02 16:12:13;;;;;;;3.80;1.88;;;44.90;32.40;;;;;;4956671;28;20032;-72
2022/08/02 16:14:38;;;;;;;4.97;1.63;;;45.30;31.10;;;;;;4970887;28;20043;-72
2022/08/02 16:17:04;;;;;;;2.50;1.90;;;44.10;32.00;;;;;;4972243;28;20152;-71
2022/08/02 16:19:30;;;;;;;4.18;1.83;;;44.30;32.70;;;;;;4976096;28;20054;-71
2022/08/02 16:21:55;;;;;;;2.80;1.80;;;44.80;32.00;;;;;;4975957;28;20044;-71
2022/08/02 16:24:21;;;;;;;3.72;1.92;;;44.00;32.50;;;;;;4963641;28;20052;-72
2022/08/02 16:26:47;;;;;;;3.80;1.63;;;43.40;33.90;;;;;;4958352;28;20473;-71
2022/08/02 16:29:15;;;;;;;4.00;1.92;;;43.20;33.60;;;;;;4976168;28;20053;-71
2022/08/02 16:31:41;;;;;;;3.90;2.25;;;42.80;33.50;;;;;;4977645;28;20102;-71
2022/08/02 16:34:06;;;;;;;3.60;2.00;;;42.70;35.20;;;;;;4964745;28;20096;-71
2022/08/02 16:36:32;;;;;;;2.70;1.80;;;41.80;34.90;;;;;;4956626;28;20107;-71
2022/08/02 16:38:57;;;;;;;1.77;1.67;;;40.60;36.00;;;;;;4975167;28;20043;-71
2022/08/02 16:41:23;;;;;;;2.85;1.67;;;40.50;36.10;;;;;;4976345;28;20107;-71
2022/08/02 16:43:49;;;;;;;2.20;1.70;;;39.30;38.00;;;;;;4976688;28;20035;-72
2022/08/02 16:46:15;;;;;;;1.92;1.80;;;38.00;40.70;;;;;;4976149;28;20042;-71
2022/08/02 16:48:41;;;;;;;2.63;1.88;;;36.20;40.40;;;;;;4958655;28;20046;-71
2022/08/02 16:51:06;;;;;;;2.22;1.80;;;35.20;42.40;;;;;;4956396;28;20038;-71
2022/08/02 16:53:32;;;;;;;3.05;1.60;;;34.70;43.10;;;;;;4956356;28;20515;-71
2022/08/02 16:55:57;;;;;;;3.22;1.38;;;34.20;44.80;;;;;;4956159;28;20501;-71
2022/08/02 16:58:23;;;;;;;2.88;1.55;;;33.90;44.10;;;;;;4970171;28;20035;-71